Time;durP1;ratioP1;P1;durP2;ratioP2;P2;SDS_P1;SDS_P2;PMS_P1;PMS_P2;Temp;Humidity;BMP_temperature;BMP_pressure;BME280_temperature;BME280_humidity;BME280_pressure;Samples;Min_cycle;Max_cycle;Signal;HPM_P1;HPM_P2
2021/12/21 00:01:59;;;;;;;4.20;3.05;;;21.00;43.00;;;;;;5011190;28;20752;-60
2021/12/21 00:04:25;;;;;;;5.68;3.70;;;21.00;42.90;;;;;;5013036;28;20136;-61
2021/12/21 00:06:50;;;;;;;4.40;3.08;;;21.00;42.80;;;;;;5011214;28;21102;-61
2021/12/21 00:09:16;;;;;;;3.92;3.28;;;21.00;42.80;;;;;;5012695;28;25900;-59
2021/12/21 00:11:42;;;;;;;5.28;3.45;;;21.00;42.70;;;;;;5011856;28;20136;-61
2021/12/21 00:14:32;;;;;;;8.07;3.63;;;21.00;42.70;;;;;;5013672;28;20054;-61
2021/12/21 00:19:44;;;;;;;5.20;3.72;;;20.90;42.60;;;;;;5015831;28;20662;-61
2021/12/21 00:23:01;;;;;;;6.70;4.20;;;20.90;43.30;;;;;;5014173;28;23954;-61
2021/12/21 00:24:58;;;;;;;5.43;4.18;;;20.90;42.50;;;;;;5018154;28;20048;-61
2021/12/21 00:27:24;;;;;;;5.68;4.45;;;20.90;42.40;;;;;;5019984;28;20037;-61
2021/12/21 00:29:49;;;;;;;5.38;4.13;;;20.90;42.40;;;;;;5016453;28;20033;-61
2021/12/21 00:32:15;;;;;;;8.13;4.88;;;20.90;42.40;;;;;;5018740;28;20100;-61
2021/12/21 00:34:41;;;;;;;6.15;4.80;;;20.90;42.30;;;;;;5016987;28;20999;-59
2021/12/21 00:37:06;;;;;;;7.30;5.15;;;20.90;42.10;;;;;;5017457;28;33018;-60
2021/12/21 00:39:32;;;;;;;7.45;5.15;;;20.90;42.10;;;;;;5016264;28;20079;-60
2021/12/21 00:41:58;;;;;;;6.00;4.68;;;20.90;42.10;;;;;;5019317;28;20140;-62
2021/12/21 00:44:23;;;;;;;7.05;5.20;;;20.90;42.10;;;;;;5016655;28;20038;-59
2021/12/21 00:46:49;;;;;;;7.18;5.25;;;20.90;42.10;;;;;;5020950;28;20038;-60
2021/12/21 00:49:16;;;;;;;7.88;5.60;;;20.90;42.10;;;;;;5015850;28;30693;-61
2021/12/21 00:51:43;;;;;;;8.18;5.25;;;20.80;42.00;;;;;;5021291;28;20126;-61
2021/12/21 00:54:10;;;;;;;8.52;5.75;;;20.80;41.90;;;;;;5017274;28;20065;-61
2021/12/21 00:56:36;;;;;;;6.75;5.13;;;20.80;41.90;;;;;;5020752;28;20046;-61
2021/12/21 00:59:01;;;;;;;7.35;5.07;;;20.80;41.80;;;;;;5017061;28;20038;-60
2021/12/21 01:01:27;;;;;;;6.13;4.70;;;20.80;41.90;;;;;;5019414;28;20044;-61
2021/12/21 01:03:54;;;;;;;7.22;5.05;;;20.80;41.90;;;;;;5014845;28;23071;-61
2021/12/21 01:06:37;;;;;;;6.78;4.93;;;20.80;41.90;;;;;;5017884;28;20120;-61
2021/12/21 01:11:34;;;;;;;6.20;4.53;;;20.70;41.60;;;;;;5017982;28;20065;-59
2021/12/21 01:16:39;;;;;;;6.80;5.18;;;20.70;41.80;;;;;;5018576;28;20152;-60
2021/12/21 01:19:11;;;;;;;5.72;4.72;;;20.70;41.80;;;;;;5012561;28;25570;-61
2021/12/21 01:21:49;;;;;;;6.25;4.65;;;20.70;42.00;;;;;;5016984;28;20052;-59
2021/12/21 01:27:16;;;;;;;6.85;4.35;;;20.70;42.00;;;;;;5018544;28;20413;-61
2021/12/21 01:35:16;;;;;;;6.63;4.22;;;20.70;42.10;;;;;;5016376;28;20176;-60
2021/12/21 01:40:39;;;;;;;6.22;4.43;;;20.60;42.10;;;;;;5019343;28;20046;-61
2021/12/21 01:51:00;;;;;;;4.70;3.78;;;20.60;42.00;;;;;;5017460;28;20091;-61
2021/12/21 01:53:26;;;;;;;4.72;3.47;;;20.60;41.80;;;;;;5016014;28;20445;-60
2021/12/21 01:55:52;;;;;;;5.28;3.80;;;20.60;41.90;;;;;;5016624;28;20132;-61
2021/12/21 01:58:18;;;;;;;5.03;3.88;;;20.60;41.80;;;;;;5017054;28;20044;-60
2021/12/21 02:00:44;;;;;;;4.40;3.60;;;20.60;41.70;;;;;;5014096;28;20038;-61
2021/12/21 02:03:10;;;;;;;4.43;3.88;;;20.60;41.70;;;;;;5015718;28;20048;-60
2021/12/21 02:05:37;;;;;;;4.47;3.50;;;20.60;41.60;;;;;;5014656;28;20425;-61
2021/12/21 02:08:04;;;;;;;4.43;3.33;;;20.60;41.60;;;;;;5018516;28;20262;-61
2021/12/21 02:10:29;;;;;;;4.47;3.67;;;20.60;41.50;;;;;;5015419;28;20052;-61
2021/12/21 02:12:55;;;;;;;4.00;3.45;;;20.60;41.40;;;;;;5014851;28;20072;-61
2021/12/21 02:15:24;;;;;;;5.20;3.63;;;20.60;41.40;;;;;;5014214;28;30829;-61
2021/12/21 02:23:09;;;;;;;4.63;3.20;;;20.60;41.60;;;;;;5014947;28;20108;-60
2021/12/21 02:26:02;;;;;;;5.15;3.55;;;20.50;41.60;;;;;;5015439;28;20902;-61
2021/12/21 02:30:58;;;;;;;3.88;3.35;;;20.60;41.70;;;;;;5016168;28;20054;-61
2021/12/21 02:33:25;;;;;;;4.28;3.33;;;20.60;41.70;;;;;;5013571;28;20064;-61
2021/12/21 02:35:51;;;;;;;5.20;3.45;;;20.60;41.70;;;;;;5015746;28;20053;-61
2021/12/21 02:38:17;;;;;;;4.63;3.10;;;20.60;41.70;;;;;;5017195;28;20068;-60
2021/12/21 02:40:43;;;;;;;3.97;3.10;;;20.60;41.70;;;;;;5016969;28;20033;-61
2021/12/21 02:43:10;;;;;;;5.00;2.95;;;20.60;41.60;;;;;;5013256;28;30866;-61
2021/12/21 02:45:37;;;;;;;3.97;2.83;;;20.60;41.70;;;;;;5014678;28;20049;-60
2021/12/21 02:48:03;;;;;;;3.97;2.95;;;20.60;41.60;;;;;;5016762;28;20048;-61
2021/12/21 02:50:29;;;;;;;5.00;3.20;;;20.60;41.60;;;;;;5011985;28;20136;-61
2021/12/21 02:52:54;;;;;;;4.55;3.28;;;20.60;41.50;;;;;;5015893;28;20063;-61
2021/12/21 02:55:20;;;;;;;3.85;3.00;;;20.60;41.60;;;;;;5012152;28;20516;-61
2021/12/21 02:57:45;;;;;;;3.83;2.72;;;20.70;41.70;;;;;;5015531;28;25637;-59
2021/12/21 03:00:12;;;;;;;3.20;2.70;;;20.60;41.50;;;;;;5010277;28;20456;-60
2021/12/21 03:02:37;;;;;;;4.47;3.00;;;20.60;41.40;;;;;;5042853;28;20048;-60
2021/12/21 03:05:04;;;;;;;3.90;2.83;;;20.70;41.50;;;;;;5010236;28;20038;-60
2021/12/21 03:08:01;;;;;;;3.50;2.88;;;20.70;40.80;;;;;;5018523;28;20049;-61
2021/12/21 03:10:24;;;;;;;3.60;3.03;;;20.70;41.50;;;;;;5012488;28;28028;-60
2021/12/21 03:15:24;;;;;;;3.70;2.88;;;20.70;41.40;;;;;;5015729;28;20034;-61
2021/12/21 03:17:51;;;;;;;3.15;2.70;;;20.70;41.40;;;;;;5015740;28;23506;-59
2021/12/21 03:20:17;;;;;;;4.30;2.65;;;20.70;41.20;;;;;;5013040;28;20048;-60
2021/12/21 03:22:43;;;;;;;4.13;2.60;;;20.70;41.30;;;;;;5012629;28;20072;-61
2021/12/21 03:25:09;;;;;;;4.18;3.17;;;20.70;41.20;;;;;;5013440;28;25946;-61
2021/12/21 03:27:35;;;;;;;4.38;2.85;;;20.70;41.20;;;;;;5013449;28;20131;-61
2021/12/21 03:30:01;;;;;;;4.40;2.67;;;20.70;41.10;;;;;;5016015;28;20408;-61
2021/12/21 03:32:27;;;;;;;5.13;2.70;;;20.80;41.10;;;;;;5014320;28;20033;-61
2021/12/21 03:34:52;;;;;;;3.13;2.80;;;20.70;41.10;;;;;;5015474;28;20100;-61
2021/12/21 03:37:18;;;;;;;3.53;2.88;;;20.80;41.00;;;;;;5014887;28;20047;-60
2021/12/21 03:39:45;;;;;;;3.10;2.60;;;20.80;41.10;;;;;;5013788;28;33586;-61
2021/12/21 03:42:15;;;;;;;3.35;2.60;;;20.80;40.90;;;;;;5015463;28;20034;-58
2021/12/21 03:44:41;;;;;;;3.95;2.58;;;20.80;40.90;;;;;;5014145;28;20060;-61
2021/12/21 03:47:10;;;;;;;3.05;2.40;;;20.80;40.90;;;;;;5015525;28;20144;-60
2021/12/21 03:52:16;;;;;;;2.88;2.42;;;20.80;40.90;;;;;;5011555;28;20045;-60
2021/12/21 03:54:45;;;;;;;2.83;2.50;;;20.80;40.80;;;;;;5013647;28;20041;-61
2021/12/21 03:57:11;;;;;;;3.38;2.33;;;20.80;40.80;;;;;;5014399;28;20061;-60
2021/12/21 03:59:37;;;;;;;3.00;2.30;;;20.80;40.90;;;;;;5012737;28;20385;-61
2021/12/21 04:02:04;;;;;;;4.22;2.58;;;20.80;40.80;;;;;;5013589;28;20037;-61
2021/12/21 04:04:30;;;;;;;5.78;2.67;;;20.90;40.80;;;;;;5014528;28;20045;-61
2021/12/21 04:06:56;;;;;;;3.47;2.40;;;20.80;40.70;;;;;;5011178;28;33124;-61
2021/12/21 04:09:22;;;;;;;3.42;2.30;;;20.90;40.70;;;;;;5014988;28;20040;-60
2021/12/21 04:11:47;;;;;;;3.53;2.15;;;20.90;40.80;;;;;;5012996;28;20068;-60
2021/12/21 04:14:13;;;;;;;3.60;2.58;;;20.80;40.60;;;;;;5014512;28;20045;-61
2021/12/21 04:16:40;;;;;;;3.00;2.33;;;20.80;40.60;;;;;;5012896;28;20033;-61
2021/12/21 04:19:05;;;;;;;2.63;2.30;;;20.90;40.80;;;;;;5016392;28;20120;-61
2021/12/21 04:21:31;;;;;;;2.83;2.28;;;20.90;40.70;;;;;;5011546;28;23153;-61
2021/12/21 04:23:57;;;;;;;2.67;2.45;;;20.90;40.70;;;;;;5014695;28;20052;-61
2021/12/21 04:26:22;;;;;;;2.90;2.17;;;20.90;40.60;;;;;;5013424;28;20037;-61
2021/12/21 04:28:48;;;;;;;2.78;2.20;;;20.90;40.60;;;;;;5015247;28;20654;-61
2021/12/21 04:31:14;;;;;;;2.40;2.20;;;20.90;40.60;;;;;;5014423;28;20782;-59
2021/12/21 04:33:44;;;;;;;2.97;2.42;;;20.90;40.60;;;;;;5012853;28;20041;-60
2021/12/21 04:36:12;;;;;;;3.30;2.38;;;20.90;40.50;;;;;;5011932;28;35566;-61
2021/12/21 04:38:41;;;;;;;2.55;2.35;;;20.90;40.50;;;;;;5015399;28;20045;-61
2021/12/21 04:41:13;;;;;;;4.13;2.35;;;20.90;40.50;;;;;;5011210;28;20061;-61
2021/12/21 04:43:40;;;;;;;3.08;2.60;;;20.90;40.40;;;;;;5013280;28;20479;-60
2021/12/21 04:46:06;;;;;;;3.58;2.30;;;20.90;40.50;;;;;;5013973;28;20335;-61
2021/12/21 04:48:31;;;;;;;3.45;2.20;;;20.90;40.30;;;;;;5013855;28;23021;-61
2021/12/21 04:50:58;;;;;;;2.67;2.40;;;20.90;40.30;;;;;;5015266;28;20041;-60
2021/12/21 04:53:24;;;;;;;3.03;2.20;;;20.90;40.20;;;;;;5014577;28;20062;-61
2021/12/21 04:55:50;;;;;;;2.78;2.42;;;20.90;40.30;;;;;;5015395;28;20486;-60
2021/12/21 04:58:15;;;;;;;3.20;2.38;;;20.90;40.20;;;;;;5013781;28;20045;-61
2021/12/21 05:00:41;;;;;;;2.95;2.17;;;20.90;40.20;;;;;;5011355;28;20037;-60
2021/12/21 05:03:07;;;;;;;3.20;2.45;;;20.90;40.10;;;;;;5011086;28;20655;-61
2021/12/21 05:05:33;;;;;;;3.08;2.42;;;20.90;40.20;;;;;;5012110;28;20033;-61
2021/12/21 05:08:10;;;;;;;2.50;2.20;;;21.00;40.10;;;;;;5017827;28;20041;-61
2021/12/21 05:10:51;;;;;;;2.30;2.10;;;21.00;40.00;;;;;;5018028;28;20046;-60
2021/12/21 05:13:18;;;;;;;2.30;2.10;;;21.00;40.10;;;;;;5015924;28;20061;-61
2021/12/21 05:15:44;;;;;;;3.25;2.53;;;21.00;40.00;;;;;;5015158;28;20037;-59
2021/12/21 05:18:11;;;;;;;3.45;2.50;;;21.00;40.00;;;;;;5014355;28;23125;-61
2021/12/21 05:20:37;;;;;;;3.15;2.58;;;21.00;40.00;;;;;;5019034;28;20958;-61
2021/12/21 05:23:03;;;;;;;2.85;2.20;;;21.00;40.00;;;;;;5017172;28;20895;-61
2021/12/21 05:25:29;;;;;;;2.95;2.30;;;21.00;39.90;;;;;;5015687;28;20072;-60
2021/12/21 05:27:55;;;;;;;3.92;2.35;;;21.00;39.90;;;;;;5017254;28;20037;-60
2021/12/21 05:30:22;;;;;;;4.55;2.22;;;21.00;39.80;;;;;;5015767;28;20045;-59
2021/12/21 05:32:49;;;;;;;5.13;2.30;;;21.00;39.90;;;;;;5015244;28;31214;-60
2021/12/21 05:35:16;;;;;;;2.42;2.20;;;21.00;39.90;;;;;;5017761;28;20041;-59
2021/12/21 05:37:42;;;;;;;2.97;2.47;;;21.00;39.90;;;;;;5045699;28;20076;-61
2021/12/21 05:40:14;;;;;;;3.65;2.13;;;21.00;39.80;;;;;;5018202;28;20042;-60
2021/12/21 05:42:41;;;;;;;3.63;2.35;;;21.00;39.80;;;;;;5004457;28;20053;-60
2021/12/21 05:45:08;;;;;;;2.55;2.22;;;21.00;39.80;;;;;;5016010;28;33086;-61
2021/12/21 05:47:34;;;;;;;2.60;2.40;;;21.00;39.90;;;;;;5013788;28;20041;-61
2021/12/21 05:50:00;;;;;;;2.58;2.30;;;21.00;39.90;;;;;;5015668;28;20036;-61
2021/12/21 05:52:26;;;;;;;2.78;2.22;;;21.00;39.90;;;;;;5015608;28;20490;-61
2021/12/21 05:54:51;;;;;;;3.67;2.67;;;21.00;39.90;;;;;;5014376;28;20400;-61
2021/12/21 05:57:17;;;;;;;3.00;2.28;;;21.00;39.90;;;;;;5016694;28;20037;-61
2021/12/21 05:59:43;;;;;;;2.65;2.13;;;21.00;39.90;;;;;;5012513;28;30745;-61
2021/12/21 06:02:09;;;;;;;3.00;2.28;;;21.00;40.00;;;;;;5015752;28;20414;-60
2021/12/21 06:04:35;;;;;;;4.30;2.30;;;20.90;39.90;;;;;;5012939;28;20052;-59
2021/12/21 06:07:01;;;;;;;2.90;2.30;;;20.90;39.90;;;;;;5013599;28;20073;-61
2021/12/21 06:09:28;;;;;;;4.07;2.40;;;21.00;39.90;;;;;;5013941;28;20378;-60
2021/12/21 06:25:25;;;;;;;3.47;2.25;;;21.00;40.10;;;;;;5013315;28;20071;-61
2021/12/21 06:27:51;;;;;;;3.85;2.55;;;21.00;40.40;;;;;;5015067;28;25611;-61
2021/12/21 06:30:17;;;;;;;3.47;2.38;;;21.00;40.10;;;;;;5016121;28;20087;-61
2021/12/21 06:32:43;;;;;;;3.10;2.40;;;21.00;40.10;;;;;;5017234;28;20041;-61
2021/12/21 06:35:09;;;;;;;4.95;2.75;;;21.00;40.10;;;;;;5015209;28;20044;-61
2021/12/21 06:37:35;;;;;;;4.88;2.75;;;21.00;40.00;;;;;;5008504;28;20144;-61
2021/12/21 06:40:01;;;;;;;3.63;2.53;;;21.00;40.10;;;;;;5014602;28;20044;-61
2021/12/21 06:42:28;;;;;;;4.93;2.72;;;21.00;40.20;;;;;;5015116;28;30598;-60
2021/12/21 06:44:57;;;;;;;4.20;2.47;;;21.00;40.10;;;;;;5016161;28;20045;-61
2021/12/21 06:52:52;;;;;;;3.45;2.47;;;21.00;40.30;;;;;;5014242;28;20041;-61
2021/12/21 06:55:18;;;;;;;4.90;2.75;;;21.00;40.40;;;;;;5010804;28;25520;-61
2021/12/21 06:57:44;;;;;;;3.55;2.65;;;21.00;40.40;;;;;;5014304;28;20107;-61
2021/12/21 07:00:14;;;;;;;3.15;2.30;;;21.00;40.40;;;;;;5016584;28;20075;-60
2021/12/21 07:02:41;;;;;;;16.77;3.80;;;21.10;40.60;;;;;;5015261;28;20045;-61
2021/12/21 07:05:08;;;;;;;9.10;3.30;;;21.10;40.80;;;;;;5013540;28;20045;-59
2021/12/21 07:07:34;;;;;;;7.95;2.95;;;21.10;41.00;;;;;;5016925;28;20037;-60
2021/12/21 07:10:03;;;;;;;8.98;2.60;;;21.10;41.10;;;;;;5010965;28;25829;-60
2021/12/21 07:20:26;;;;;;;5.75;2.97;;;21.10;41.40;;;;;;5014883;28;20040;-60
2021/12/21 07:22:52;;;;;;;9.55;2.80;;;21.20;41.50;;;;;;5014969;28;20413;-59
2021/12/21 07:25:18;;;;;;;8.55;2.78;;;21.20;41.30;;;;;;5012179;28;30628;-60
2021/12/21 07:27:45;;;;;;;5.85;2.55;;;21.20;41.30;;;;;;5014452;28;20100;-60
2021/12/21 07:30:11;;;;;;;5.57;2.70;;;21.20;41.30;;;;;;5014535;28;20119;-60
2021/12/21 07:32:37;;;;;;;5.05;2.90;;;21.20;41.20;;;;;;5013187;28;20084;-60
2021/12/21 07:35:03;;;;;;;6.15;2.67;;;21.20;41.20;;;;;;5012164;28;20045;-61
2021/12/21 07:37:29;;;;;;;5.78;2.80;;;21.20;41.30;;;;;;5011356;28;28044;-60
2021/12/21 07:39:55;;;;;;;6.10;2.90;;;21.20;42.00;;;;;;5009091;28;20040;-60
2021/12/21 07:42:21;;;;;;;7.38;2.95;;;21.20;41.20;;;;;;5008073;28;20076;-59
2021/12/21 07:44:48;;;;;;;4.47;2.70;;;21.20;41.40;;;;;;5013086;28;20564;-58
2021/12/21 07:47:14;;;;;;;9.73;2.83;;;21.20;41.40;;;;;;5011624;28;20111;-59
2021/12/21 07:49:39;;;;;;;4.03;2.67;;;21.20;41.40;;;;;;5011295;28;20045;-61
2021/12/21 07:52:09;;;;;;;5.15;3.05;;;21.20;41.40;;;;;;5009114;28;25786;-59
2021/12/21 07:54:35;;;;;;;5.65;3.05;;;21.20;41.40;;;;;;5012990;28;20046;-60
2021/12/21 07:57:00;;;;;;;8.18;3.33;;;21.20;41.30;;;;;;5010662;28;20408;-60
2021/12/21 07:59:26;;;;;;;7.45;3.30;;;21.20;41.20;;;;;;5015047;28;20042;-61
2021/12/21 08:01:52;;;;;;;9.75;4.88;;;21.20;41.20;;;;;;5014427;28;20386;-60
2021/12/21 08:04:21;;;;;;;16.90;8.02;;;21.20;41.20;;;;;;5012632;28;20065;-61
2021/12/21 08:06:48;;;;;;;15.68;8.13;;;21.20;41.20;;;;;;5013553;28;33819;-60
2021/12/21 08:09:14;;;;;;;11.65;7.70;;;21.20;41.30;;;;;;5014401;28;20048;-60
2021/12/21 08:14:06;;;;;;;17.02;7.88;;;21.20;41.40;;;;;;5013544;28;20076;-60
2021/12/21 08:16:32;;;;;;;16.92;7.68;;;21.20;41.60;;;;;;5013698;28;20041;-60
2021/12/21 08:18:58;;;;;;;20.42;9.57;;;21.20;41.60;;;;;;5013434;28;20096;-60
2021/12/21 08:21:25;;;;;;;19.48;8.98;;;21.20;41.60;;;;;;5010256;28;30807;-60
2021/12/21 08:23:51;;;;;;;22.67;10.10;;;21.20;41.80;;;;;;5013280;28;20077;-59
2021/12/21 08:26:17;;;;;;;25.38;11.52;;;21.20;41.80;;;;;;5008567;28;20052;-60
2021/12/21 08:28:43;;;;;;;24.83;10.27;;;21.20;42.10;;;;;;5013325;28;20038;-60
2021/12/21 08:31:11;;;;;;;27.88;11.70;;;21.20;42.10;;;;;;5009009;28;20044;-60
2021/12/21 08:33:41;;;;;;;24.98;11.00;;;21.20;42.30;;;;;;5011144;28;23392;-60
2021/12/21 08:36:08;;;;;;;25.58;10.93;;;21.20;42.60;;;;;;5011492;28;20473;-60
2021/12/21 08:38:37;;;;;;;27.02;10.50;;;21.20;42.90;;;;;;5011513;28;20044;-60
2021/12/21 08:41:03;;;;;;;27.02;10.38;;;21.30;43.20;;;;;;5015346;28;20045;-60
2021/12/21 08:43:31;;;;;;;23.45;9.57;;;21.30;43.40;;;;;;5018168;28;20096;-60
2021/12/21 08:45:57;;;;;;;23.70;10.85;;;21.30;43.40;;;;;;5016423;28;20416;-60
2021/12/21 08:48:23;;;;;;;23.02;9.88;;;21.30;43.50;;;;;;5018987;28;23725;-58
2021/12/21 08:50:50;;;;;;;17.95;8.32;;;21.30;43.50;;;;;;5015560;28;20477;-60
2021/12/21 08:53:17;;;;;;;24.80;9.15;;;21.30;43.60;;;;;;5016778;28;21506;-60
2021/12/21 08:55:44;;;;;;;18.20;8.40;;;21.30;43.70;;;;;;5018180;28;20037;-60
2021/12/21 08:58:10;;;;;;;21.73;7.97;;;21.20;43.70;;;;;;5017273;28;20029;-60
2021/12/21 09:00:37;;;;;;;20.60;8.35;;;21.30;43.80;;;;;;5011026;28;20052;-61
2021/12/21 09:03:04;;;;;;;20.98;7.78;;;21.30;43.90;;;;;;5012049;28;33201;-61
2021/12/21 09:05:31;;;;;;;15.65;7.43;;;21.30;43.90;;;;;;5017803;28;20034;-61
2021/12/21 09:07:57;;;;;;;21.42;8.05;;;21.30;43.80;;;;;;5015858;28;20046;-61
2021/12/21 09:10:24;;;;;;;18.17;6.78;;;21.30;43.70;;;;;;5016519;28;20052;-61
2021/12/21 09:12:51;;;;;;;14.70;6.75;;;21.30;43.60;;;;;;5016322;28;20152;-61
2021/12/21 09:15:18;;;;;;;13.35;7.05;;;21.30;43.50;;;;;;5017192;28;20639;-61
2021/12/21 09:17:44;;;;;;;12.95;6.47;;;21.30;43.40;;;;;;5018682;28;32838;-61
2021/12/21 09:20:13;;;;;;;14.73;6.50;;;21.30;43.30;;;;;;5015593;28;20135;-61
2021/12/21 09:22:39;;;;;;;16.23;6.53;;;21.30;43.20;;;;;;5016828;28;20390;-61
2021/12/21 09:25:06;;;;;;;14.05;6.50;;;21.30;43.10;;;;;;5016391;28;20467;-61
2021/12/21 09:27:32;;;;;;;10.55;6.10;;;21.30;43.00;;;;;;5014371;28;20605;-61
2021/12/21 09:29:57;;;;;;;13.98;6.18;;;21.30;42.80;;;;;;5013133;28;23717;-61
2021/12/21 09:32:23;;;;;;;13.35;5.85;;;21.30;42.80;;;;;;5015206;28;20077;-62
2021/12/21 09:34:49;;;;;;;12.25;5.95;;;21.40;42.80;;;;;;5013092;28;20117;-61
2021/12/21 09:37:18;;;;;;;13.77;6.25;;;21.40;42.70;;;;;;5015892;28;20104;-61
2021/12/21 09:39:47;;;;;;;12.23;6.10;;;21.40;42.60;;;;;;5013386;28;20034;-61
2021/12/21 09:42:16;;;;;;;11.85;6.28;;;21.40;42.50;;;;;;5019912;28;20137;-61
2021/12/21 09:44:42;;;;;;;10.50;5.82;;;21.40;42.50;;;;;;5013567;28;25419;-61
2021/12/21 09:47:09;;;;;;;11.77;5.75;;;21.40;42.40;;;;;;5017341;28;20048;-62
2021/12/21 09:49:35;;;;;;;11.60;5.65;;;21.40;42.30;;;;;;5014279;28;20038;-61
2021/12/21 09:52:01;;;;;;;13.68;6.07;;;21.40;42.30;;;;;;5017140;28;20037;-59
2021/12/21 09:54:27;;;;;;;12.15;5.57;;;21.40;42.20;;;;;;5028963;28;20577;-61
2021/12/21 09:56:53;;;;;;;9.57;5.10;;;21.40;42.30;;;;;;5018392;28;20091;-60
2021/12/21 09:59:19;;;;;;;10.60;5.15;;;21.40;42.30;;;;;;5014679;28;33857;-61
2021/12/21 10:01:45;;;;;;;10.13;5.40;;;21.40;42.30;;;;;;5015129;28;20116;-61
2021/12/21 10:04:11;;;;;;;10.07;5.90;;;21.40;42.30;;;;;;5015710;28;20084;-59
2021/12/21 10:06:47;;;;;;;11.05;5.50;;;21.40;42.20;;;;;;5012469;28;20042;-61
2021/12/21 10:09:13;;;;;;;8.65;5.07;;;21.50;42.20;;;;;;5016065;28;20417;-61
2021/12/21 10:11:44;;;;;;;8.57;5.53;;;21.40;42.10;;;;;;5013958;28;20057;-60
2021/12/21 10:14:10;;;;;;;8.48;5.03;;;21.40;42.10;;;;;;5015363;28;20100;-61
2021/12/21 10:16:36;;;;;;;8.38;5.05;;;21.50;42.10;;;;;;5012724;28;20084;-60
2021/12/21 10:19:05;;;;;;;8.77;5.30;;;21.40;42.10;;;;;;5011156;28;20104;-61
2021/12/21 10:21:30;;;;;;;9.02;5.38;;;21.40;42.00;;;;;;5015251;28;20120;-60
2021/12/21 10:23:57;;;;;;;8.85;5.70;;;21.50;42.00;;;;;;5015344;28;20067;-61
2021/12/21 10:26:29;;;;;;;11.65;5.00;;;21.50;42.00;;;;;;5013875;28;23347;-61
2021/12/21 10:29:00;;;;;;;7.22;4.80;;;21.40;41.80;;;;;;5016538;28;20038;-60
2021/12/21 10:31:29;;;;;;;9.07;5.63;;;21.50;41.90;;;;;;5015391;28;20482;-61
2021/12/21 10:33:57;;;;;;;6.05;4.65;;;21.50;41.90;;;;;;5015103;28;20091;-60
2021/12/21 10:36:26;;;;;;;7.18;5.00;;;21.50;41.90;;;;;;5014805;28;20037;-60
2021/12/21 10:38:55;;;;;;;10.48;4.97;;;21.50;41.90;;;;;;5014204;28;20041;-60
2021/12/21 10:41:32;;;;;;;8.20;5.05;;;21.50;41.80;;;;;;5012376;28;25442;-60
2021/12/21 10:44:00;;;;;;;7.93;5.07;;;21.50;41.80;;;;;;5014039;28;20084;-60
2021/12/21 10:46:28;;;;;;;7.43;5.05;;;21.50;41.80;;;;;;5015216;28;20041;-60
2021/12/21 10:49:07;;;;;;;7.78;4.93;;;21.50;41.80;;;;;;5012895;28;20037;-60
2021/12/21 10:51:33;;;;;;;7.20;4.65;;;21.50;41.70;;;;;;5015293;28;20561;-60
2021/12/21 10:53:58;;;;;;;8.43;4.57;;;21.50;41.70;;;;;;5012389;28;33427;-60
2021/12/21 10:56:24;;;;;;;6.38;4.68;;;21.50;41.70;;;;;;5013299;28;20043;-60
2021/12/21 10:58:50;;;;;;;6.38;4.57;;;21.50;41.60;;;;;;5016927;28;20100;-60
2021/12/21 11:01:25;;;;;;;6.25;4.28;;;21.50;41.60;;;;;;5012107;28;20121;-59
2021/12/21 11:03:54;;;;;;;9.60;5.00;;;21.60;41.60;;;;;;5016076;28;20467;-60
2021/12/21 11:06:25;;;;;;;6.53;4.68;;;21.50;41.50;;;;;;5014679;28;20056;-60
2021/12/21 11:08:55;;;;;;;5.82;4.30;;;21.50;41.40;;;;;;5016077;28;30813;-60
2021/12/21 11:11:29;;;;;;;5.95;4.30;;;21.50;41.40;;;;;;5013603;28;20049;-60
2021/12/21 11:14:17;;;;;;;7.18;4.25;;;21.60;41.40;;;;;;5015025;28;20056;-61
2021/12/21 11:16:46;;;;;;;5.88;4.18;;;21.60;41.40;;;;;;5018617;28;20124;-59
2021/12/21 11:19:14;;;;;;;5.72;3.85;;;21.50;41.30;;;;;;5013560;28;20031;-60
2021/12/21 11:21:41;;;;;;;7.13;4.25;;;21.60;41.40;;;;;;5016420;28;20045;-60
2021/12/21 11:24:09;;;;;;;6.38;4.07;;;21.60;41.40;;;;;;5011790;28;23866;-60
2021/12/21 11:26:36;;;;;;;7.30;4.13;;;21.60;41.40;;;;;;5013624;28;20044;-60
2021/12/21 11:29:05;;;;;;;5.20;3.67;;;21.60;41.40;;;;;;5017840;28;20041;-59
2021/12/21 11:31:35;;;;;;;6.47;3.92;;;21.60;41.40;;;;;;5012916;28;20160;-61
2021/12/21 11:34:01;;;;;;;5.35;3.63;;;21.60;41.30;;;;;;5014734;28;20045;-60
2021/12/21 11:39:13;;;;;;;7.72;4.10;;;21.60;41.40;;;;;;5013377;28;20049;-60
2021/12/21 11:41:41;;;;;;;9.02;3.60;;;21.60;41.40;;;;;;5013849;28;20041;-60
2021/12/21 11:44:32;;;;;;;6.55;3.83;;;21.60;41.60;;;;;;5011007;28;20416;-60
2021/12/21 11:47:03;;;;;;;5.78;3.75;;;21.60;41.60;;;;;;5014860;28;20042;-60
2021/12/21 11:49:40;;;;;;;4.70;3.55;;;21.60;41.60;;;;;;5012015;28;20075;-59
2021/12/21 11:52:14;;;;;;;5.43;3.83;;;21.60;41.70;;;;;;5008612;28;26145;-60
2021/12/21 11:54:48;;;;;;;6.53;3.58;;;21.70;41.80;;;;;;5012979;28;20519;-60
2021/12/21 11:57:15;;;;;;;6.68;3.78;;;21.70;41.80;;;;;;5010483;28;20041;-60
2021/12/21 11:59:41;;;;;;;5.20;3.75;;;21.70;41.80;;;;;;5012500;28;20077;-60
2021/12/21 12:02:07;;;;;;;7.55;3.55;;;21.70;41.80;;;;;;5013429;28;20473;-60
2021/12/21 12:04:33;;;;;;;5.28;3.35;;;21.70;41.90;;;;;;5010630;28;33279;-60
2021/12/21 12:06:59;;;;;;;6.72;3.67;;;21.70;42.10;;;;;;5014608;28;20509;-60
2021/12/21 12:09:31;;;;;;;4.95;3.28;;;21.70;42.10;;;;;;5010958;28;20199;-59
2021/12/21 12:12:15;;;;;;;6.18;3.30;;;21.70;42.10;;;;;;5012522;28;20195;-59
2021/12/21 12:14:44;;;;;;;6.22;3.33;;;21.70;42.10;;;;;;5017148;28;20049;-59
2021/12/21 12:17:14;;;;;;;6.15;2.80;;;21.70;42.20;;;;;;5013813;28;20136;-60
2021/12/21 12:19:43;;;;;;;4.88;3.00;;;21.70;42.30;;;;;;5017832;28;30390;-59
2021/12/21 12:22:13;;;;;;;6.70;3.40;;;21.80;42.30;;;;;;5016116;28;20157;-59
2021/12/21 12:24:47;;;;;;;6.97;2.97;;;21.70;42.40;;;;;;5018624;28;20061;-58
2021/12/21 12:27:17;;;;;;;6.47;3.45;;;21.80;42.60;;;;;;5014666;28;20124;-60
2021/12/21 12:29:50;;;;;;;4.90;2.75;;;21.80;42.60;;;;;;5017227;28;20041;-60
2021/12/21 12:32:18;;;;;;;5.10;2.88;;;21.70;43.30;;;;;;5017548;28;20067;-60
2021/12/21 12:34:44;;;;;;;4.07;2.83;;;21.80;42.70;;;;;;5014703;28;20080;-60
2021/12/21 12:37:19;;;;;;;6.45;2.78;;;21.80;42.80;;;;;;5018422;28;20103;-59
2021/12/21 12:39:50;;;;;;;5.15;2.70;;;21.80;43.50;;;;;;4996353;28;20073;-59
2021/12/21 12:42:23;;;;;;;4.95;2.80;;;21.80;42.70;;;;;;5002862;28;20056;-59
2021/12/21 12:45:02;;;;;;;5.03;3.00;;;21.80;42.80;;;;;;5020617;28;20089;-60
2021/12/21 12:47:28;;;;;;;5.38;2.70;;;21.80;42.70;;;;;;5014878;28;23095;-59
2021/12/21 12:49:55;;;;;;;4.05;2.45;;;21.80;42.70;;;;;;5017702;28;20067;-59
2021/12/21 12:52:27;;;;;;;3.80;2.67;;;21.80;42.70;;;;;;5013613;28;20051;-59
2021/12/21 12:54:59;;;;;;;3.22;2.42;;;21.80;42.60;;;;;;5015586;28;20037;-58
2021/12/21 12:57:30;;;;;;;3.53;2.60;;;21.80;42.60;;;;;;5018231;28;20144;-60
2021/12/21 13:00:25;;;;;;;5.53;2.63;;;21.80;42.50;;;;;;5017264;28;20042;-60
2021/12/21 13:03:09;;;;;;;3.92;2.33;;;21.80;42.40;;;;;;5019035;28;20168;-59
2021/12/21 13:05:52;;;;;;;4.35;2.80;;;21.90;42.50;;;;;;5018141;28;20046;-60
2021/12/21 13:08:22;;;;;;;4.00;2.67;;;21.80;42.50;;;;;;5017195;28;20041;-59
2021/12/21 13:10:51;;;;;;;3.70;2.53;;;21.80;42.40;;;;;;5045990;28;20442;-60
2021/12/21 13:13:17;;;;;;;3.58;2.35;;;21.90;42.50;;;;;;5016168;28;20054;-59
2021/12/21 13:15:45;;;;;;;4.63;2.47;;;21.90;42.40;;;;;;5015308;28;30474;-59
2021/12/21 13:18:13;;;;;;;3.53;2.63;;;21.90;42.40;;;;;;5017367;28;20037;-60
2021/12/21 13:20:40;;;;;;;5.35;2.17;;;21.90;42.60;;;;;;5015792;28;20033;-61
2021/12/21 13:23:25;;;;;;;3.90;2.22;;;21.90;42.80;;;;;;5018130;28;20481;-60
2021/12/21 13:26:04;;;;;;;7.30;2.47;;;21.90;42.90;;;;;;5009768;28;20041;-60
2021/12/21 13:28:36;;;;;;;3.05;2.35;;;21.90;43.00;;;;;;5010981;28;20717;-60
2021/12/21 13:31:06;;;;;;;4.22;2.50;;;21.90;43.20;;;;;;5007298;28;20069;-59
2021/12/21 13:33:33;;;;;;;3.25;2.08;;;21.90;43.30;;;;;;5010538;28;20463;-60
2021/12/21 13:36:07;;;;;;;4.38;2.50;;;21.90;43.30;;;;;;5014154;28;20052;-60
2021/12/21 13:38:36;;;;;;;4.68;2.80;;;21.90;43.30;;;;;;5024955;28;20525;-60
2021/12/21 13:41:07;;;;;;;5.00;2.83;;;21.90;43.20;;;;;;5016347;28;20059;-59
2021/12/21 13:43:35;;;;;;;3.17;2.70;;;22.00;43.20;;;;;;5010490;28;33780;-61
2021/12/21 13:46:04;;;;;;;3.50;2.50;;;21.90;43.00;;;;;;5013438;28;20041;-59
2021/12/21 13:48:31;;;;;;;5.60;2.55;;;21.90;42.90;;;;;;5015427;28;20394;-59
2021/12/21 13:51:16;;;;;;;6.38;2.88;;;21.90;42.80;;;;;;5015344;28;20077;-59
2021/12/21 13:53:48;;;;;;;4.25;2.45;;;22.00;42.80;;;;;;5017407;28;20030;-60
2021/12/21 13:56:19;;;;;;;3.45;2.35;;;21.90;42.70;;;;;;5011741;28;20485;-60
2021/12/21 13:58:46;;;;;;;4.45;2.75;;;21.90;42.70;;;;;;5010845;28;23312;-60
2021/12/21 14:01:26;;;;;;;4.22;2.50;;;21.90;42.70;;;;;;5016649;28;20123;-59
2021/12/21 14:04:03;;;;;;;4.03;2.58;;;21.90;42.70;;;;;;5012503;28;20091;-60